createdAt,value
2022-08-25T00:02:03.087Z,65.86
2022-08-25T00:04:31.717Z,66.32
2022-08-25T00:07:03.282Z,67.01
2022-08-25T00:09:31.515Z,67.60
2022-08-25T00:11:58.843Z,67.46
2022-08-25T00:14:29.723Z,66.51
2022-08-25T00:16:56.804Z,66.67
2022-08-25T00:19:26.383Z,67.03
2022-08-25T00:21:53.370Z,67.29
2022-08-25T00:24:21.225Z,68.12
2022-08-25T00:26:49.752Z,68.41
2022-08-25T00:29:16.957Z,68.96
2022-08-25T00:31:44.348Z,68.02
2022-08-25T00:34:14.721Z,66.63
2022-08-25T00:36:41.969Z,66.04
2022-08-25T00:39:09.856Z,66.58
2022-08-25T00:41:37.103Z,67.18
2022-08-25T00:44:06.148Z,68.62
2022-08-25T00:46:41.763Z,69.20
2022-08-25T00:49:40.208Z,69.37
2022-08-25T00:52:19.442Z,69.58
2022-08-25T00:54:55.669Z,67.47
2022-08-25T00:57:34.678Z,66.85
2022-08-25T01:00:06.802Z,67.40
2022-08-25T01:02:33.839Z,68.56
2022-08-25T01:05:00.815Z,69.44
2022-08-25T01:07:27.865Z,69.91
2022-08-25T01:09:55.806Z,70.24
2022-08-25T01:12:22.778Z,70.05
2022-08-25T01:14:50.423Z,69.23
2022-08-25T01:17:17.359Z,67.34
2022-08-25T01:19:44.306Z,66.65
2022-08-25T01:22:12.373Z,67.72
2022-08-25T01:24:51.067Z,69.69
2022-08-25T01:27:17.960Z,70.85
2022-08-25T01:29:44.984Z,71.55
2022-08-25T01:32:13.468Z,72.27
2022-08-25T01:34:41.706Z,70.88
2022-08-25T01:37:09.711Z,69.18
2022-08-25T01:39:40.880Z,69.04
2022-08-25T01:42:09.466Z,69.85
2022-08-25T01:44:38.593Z,70.33
2022-08-25T01:47:06.322Z,71.42
2022-08-25T01:49:33.346Z,71.81
2022-08-25T01:52:21.578Z,71.53
2022-08-25T01:54:48.829Z,69.06
2022-08-25T01:57:15.889Z,68.43
2022-08-25T01:59:43.067Z,69.21
2022-08-25T02:02:10.639Z,69.82
2022-08-25T02:04:38.080Z,70.94
2022-08-25T02:07:07.116Z,72.43
2022-08-25T02:09:35.119Z,73.14
2022-08-25T02:12:02.196Z,73.29
2022-08-25T02:14:29.215Z,71.55
2022-08-25T02:16:56.436Z,70.72
2022-08-25T02:19:24.666Z,70.89
2022-08-25T02:21:51.790Z,71.31
2022-08-25T02:24:19.145Z,71.67
2022-08-25T02:26:46.205Z,72.43
2022-08-25T02:29:13.257Z,73.40
2022-08-25T02:31:40.343Z,71.97
2022-08-25T02:34:08.121Z,70.06
2022-08-25T02:36:35.307Z,69.52
2022-08-25T02:39:02.560Z,70.21
2022-08-25T02:41:31.788Z,71.08
2022-08-25T02:44:00.235Z,72.43
2022-08-25T02:46:27.491Z,73.72
2022-08-25T02:48:55.443Z,74.84
2022-08-25T02:51:23.171Z,73.98
2022-08-25T02:53:50.289Z,72.90
2022-08-25T02:56:18.451Z,72.93
2022-08-25T02:58:46.599Z,73.45
2022-08-25T03:01:13.827Z,74.06
2022-08-25T03:03:41.587Z,74.34
2022-08-25T03:06:12.704Z,75.31
2022-08-25T03:08:39.921Z,73.85
2022-08-25T03:11:07.072Z,71.69
2022-08-25T03:13:34.159Z,71.15
2022-08-25T03:16:02.993Z,71.86
2022-08-25T03:18:30.334Z,72.61
2022-08-25T03:20:57.964Z,72.71
2022-08-25T03:23:25.279Z,73.47
2022-08-25T03:26:13.726Z,74.56
2022-08-25T03:28:41.782Z,73.45
2022-08-25T03:31:08.795Z,71.51
2022-08-25T03:33:36.164Z,71.37
2022-08-25T03:36:03.689Z,71.70
2022-08-25T03:38:30.670Z,72.00
2022-08-25T03:40:57.907Z,71.73
2022-08-25T03:43:24.790Z,72.52
2022-08-25T03:45:51.935Z,72.99
2022-08-25T03:48:19.330Z,72.13
2022-08-25T03:50:51.767Z,70.03
2022-08-25T03:53:20.076Z,69.12
2022-08-25T03:55:47.797Z,68.81
2022-08-25T03:58:14.834Z,68.35
2022-08-25T04:00:42.400Z,68.61
2022-08-25T04:03:09.499Z,69.59
2022-08-25T04:05:36.727Z,69.18
2022-08-25T04:08:04.236Z,67.52
2022-08-25T04:10:32.154Z,64.40
2022-08-25T04:12:59.734Z,63.14
2022-08-25T04:15:30.099Z,63.67
2022-08-25T04:17:59.224Z,63.73
2022-08-25T04:20:26.356Z,64.01
2022-08-25T04:22:53.536Z,64.17
2022-08-25T04:25:20.586Z,63.98
2022-08-25T04:27:47.659Z,63.95
2022-08-25T04:30:15.497Z,63.94
2022-08-25T04:32:42.401Z,64.12
2022-08-25T04:35:09.950Z,64.28
2022-08-25T04:37:37.045Z,64.19
2022-08-25T04:40:05.346Z,63.58
2022-08-25T04:42:32.368Z,63.88
2022-08-25T04:45:00.160Z,63.93
2022-08-25T04:47:28.133Z,63.51
2022-08-25T04:49:56.074Z,63.90
2022-08-25T04:52:23.121Z,64.20
2022-08-25T04:54:50.174Z,63.87
2022-08-25T04:57:17.116Z,63.27
2022-08-25T04:59:44.025Z,62.71
2022-08-25T05:02:11.030Z,62.43
2022-08-25T05:04:38.237Z,62.17
2022-08-25T05:07:05.332Z,61.98
2022-08-25T05:09:32.987Z,61.53
2022-08-25T05:12:02.212Z,61.51
2022-08-25T05:14:30.136Z,61.08
2022-08-25T05:16:57.697Z,61.26
2022-08-25T05:19:24.875Z,60.52
2022-08-25T05:21:52.245Z,60.05
2022-08-25T05:24:20.065Z,60.23
2022-08-25T05:26:47.019Z,59.34
2022-08-25T05:29:14.676Z,58.54
2022-08-25T05:31:47.028Z,58.87
2022-08-25T05:34:18.598Z,57.53
2022-08-25T05:36:45.823Z,57.52
2022-08-25T05:39:13.002Z,57.33
2022-08-25T05:41:40.173Z,56.65
2022-08-25T05:44:07.513Z,56.41
2022-08-25T05:46:34.653Z,56.25
2022-08-25T05:49:02.215Z,55.73
2022-08-25T05:51:29.319Z,54.69
2022-08-25T05:53:56.425Z,54.53
2022-08-25T05:56:23.377Z,53.76
2022-08-25T05:58:50.488Z,54.20
2022-08-25T06:01:43.451Z,53.93
2022-08-25T06:04:13.439Z,54.00
2022-08-25T06:06:40.497Z,53.94
2022-08-25T06:09:08.965Z,53.25
2022-08-25T06:11:37.698Z,53.17
2022-08-25T06:14:05.063Z,53.22
2022-08-25T06:16:32.157Z,52.38
2022-08-25T06:18:59.348Z,52.52
2022-08-25T06:21:26.321Z,52.96
2022-08-25T06:23:53.233Z,52.36
2022-08-25T06:26:21.474Z,52.54
2022-08-25T06:28:50.494Z,51.93
2022-08-25T06:31:18.041Z,53.06
2022-08-25T06:33:45.330Z,51.85
2022-08-25T06:36:12.571Z,51.46
2022-08-25T06:38:39.619Z,51.71
2022-08-25T06:41:06.866Z,51.89
2022-08-25T06:43:34.432Z,52.11
2022-08-25T06:46:10.624Z,51.15
2022-08-25T06:48:38.051Z,51.56
2022-08-25T06:51:10.247Z,50.88
2022-08-25T06:53:41.978Z,50.34
2022-08-25T06:56:09.432Z,49.77
2022-08-25T06:58:36.490Z,49.06
2022-08-25T07:01:19.645Z,49.52
2022-08-25T07:03:47.748Z,48.24
2022-08-25T07:06:18.262Z,48.12
2022-08-25T07:08:46.993Z,48.15
2022-08-25T07:11:18.350Z,48.02
2022-08-25T07:13:45.714Z,46.56
2022-08-25T07:16:13.012Z,46.98
2022-08-25T07:18:40.817Z,47.33
2022-08-25T07:21:08.932Z,46.39
2022-08-25T07:23:37.191Z,46.49
2022-08-25T07:26:33.635Z,46.21
2022-08-25T07:28:59.934Z,45.16
2022-08-25T07:31:29.443Z,45.16
2022-08-25T07:34:16.708Z,45.25
2022-08-25T07:36:44.936Z,42.86
2022-08-25T07:39:12.086Z,44.11
2022-08-25T07:41:40.619Z,42.50
2022-08-25T07:44:08.150Z,41.91
2022-08-25T07:46:35.552Z,41.22
2022-08-25T07:49:02.681Z,40.58
2022-08-25T07:51:29.784Z,39.68
2022-08-25T07:53:57.165Z,40.34
2022-08-25T07:56:24.715Z,37.65
2022-08-25T07:58:51.747Z,38.56
2022-08-25T08:01:20.925Z,37.87
2022-08-25T08:03:51.143Z,37.14
2022-08-25T08:06:22.194Z,37.62
2022-08-25T08:08:50.515Z,36.79
2022-08-25T08:11:24.210Z,38.05
2022-08-25T08:13:51.932Z,36.60
2022-08-25T08:16:19.709Z,36.12
2022-08-25T08:18:47.084Z,34.18
2022-08-25T08:21:19.049Z,33.54
2022-08-25T08:23:48.570Z,34.13
2022-08-25T08:26:17.160Z,33.79
2022-08-25T08:28:44.577Z,34.27
2022-08-25T08:31:21.441Z,35.57
2022-08-25T08:33:49.645Z,34.95
2022-08-25T08:36:17.420Z,35.21
2022-08-25T08:38:45.059Z,33.76
2022-08-25T08:41:40.097Z,34.58
2022-08-25T08:44:42.720Z,33.06
2022-08-25T08:47:38.166Z,31.52
2022-08-25T08:50:30.742Z,30.82
2022-08-25T08:53:11.941Z,30.10
2022-08-25T08:55:43.854Z,30.67
2022-08-25T08:58:13.361Z,31.58
2022-08-25T09:00:51.997Z,31.17
2022-08-25T09:03:41.360Z,30.90
2022-08-25T09:06:23.220Z,31.08
2022-08-25T09:08:51.101Z,31.95
2022-08-25T09:11:36.988Z,32.05
2022-08-25T09:14:33.465Z,31.59
2022-08-25T09:17:05.296Z,30.52
2022-08-25T09:19:42.082Z,29.41
2022-08-25T09:22:35.649Z,29.97
2022-08-25T09:25:10.585Z,28.36
2022-08-25T09:28:08.845Z,28.11
2022-08-25T09:30:45.451Z,28.96
2022-08-25T09:33:13.485Z,26.96
2022-08-25T09:35:48.085Z,26.89
2022-08-25T09:38:16.924Z,26.65
2022-08-25T09:40:47.528Z,26.59
2022-08-25T09:43:25.262Z,26.05
2022-08-25T09:45:58.476Z,27.03
2022-08-25T09:48:40.738Z,26.01
2022-08-25T09:51:11.548Z,27.74
2022-08-25T09:53:48.775Z,28.42
2022-08-25T09:56:16.919Z,27.88
2022-08-25T09:58:43.967Z,28.10
2022-08-25T10:01:22.560Z,26.68
2022-08-25T10:04:17.704Z,25.53
2022-08-25T10:06:48.134Z,25.82
2022-08-25T10:09:25.917Z,25.15
2022-08-25T10:11:57.988Z,25.48
2022-08-25T10:14:25.241Z,23.44
2022-08-25T10:16:54.742Z,22.33
2022-08-25T10:19:23.788Z,21.69
2022-08-25T10:22:11.519Z,21.67
2022-08-25T10:24:41.026Z,22.73
2022-08-25T10:27:20.284Z,21.68
2022-08-25T10:30:17.774Z,21.36
2022-08-25T10:33:17.653Z,21.83
2022-08-25T10:36:00.223Z,22.67
2022-08-25T10:38:38.487Z,21.60
2022-08-25T10:41:33.133Z,21.85
2022-08-25T10:44:39.416Z,21.94
2022-08-25T10:47:39.192Z,21.33
2022-08-25T10:50:32.253Z,20.59
2022-08-25T10:53:23.073Z,21.58
2022-08-25T10:56:09.072Z,20.77
2022-08-25T10:59:44.290Z,21.09
2022-08-25T11:02:41.496Z,20.57
2022-08-25T11:05:37.124Z,20.98
2022-08-25T11:08:12.119Z,20.11
2022-08-25T11:10:41.216Z,20.44
2022-08-25T11:13:16.341Z,18.82
2022-08-25T11:16:15.508Z,18.71
2022-08-25T11:18:39.835Z,17.61
2022-08-25T11:21:12.392Z,18.40
2022-08-25T11:23:44.457Z,18.49
2022-08-25T11:26:13.668Z,19.70
2022-08-25T11:28:47.921Z,18.86
2022-08-25T11:31:16.110Z,18.71
2022-08-25T11:33:43.632Z,18.52
2022-08-25T11:36:29.655Z,18.61
2022-08-25T11:39:00.735Z,17.05
2022-08-25T11:41:53.696Z,17.03
2022-08-25T11:44:33.109Z,17.23
2022-08-25T11:47:01.087Z,17.78
2022-08-25T11:49:43.200Z,18.42
2022-08-25T11:52:39.261Z,18.23
2022-08-25T11:55:40.481Z,18.63
2022-08-25T11:58:27.389Z,17.84
2022-08-25T12:00:55.680Z,18.27
2022-08-25T12:03:32.041Z,17.97
2022-08-25T12:06:25.506Z,18.32
2022-08-25T12:09:03.328Z,17.72
2022-08-25T12:11:41.658Z,18.21
2022-08-25T12:14:17.897Z,18.22
2022-08-25T12:17:05.369Z,18.52
2022-08-25T12:19:35.512Z,18.36
2022-08-25T12:22:03.922Z,18.61
2022-08-25T12:24:48.171Z,18.93
2022-08-25T12:27:43.671Z,18.99
2022-08-25T12:30:18.372Z,19.37
2022-08-25T12:33:08.688Z,19.98
2022-08-25T12:35:49.690Z,20.38
2022-08-25T12:38:44.732Z,20.05
2022-08-25T12:41:18.706Z,20.73
2022-08-25T12:43:47.540Z,19.04
2022-08-25T12:46:27.893Z,19.10
2022-08-25T12:49:33.376Z,18.74
2022-08-25T12:52:06.580Z,19.49
2022-08-25T12:54:36.793Z,20.39
2022-08-25T12:57:35.375Z,19.48
2022-08-25T13:00:18.365Z,19.25
2022-08-25T13:03:11.663Z,20.24
2022-08-25T13:05:45.571Z,21.27
2022-08-25T13:08:23.014Z,20.49
2022-08-25T13:11:35.574Z,19.12
2022-08-25T13:14:38.241Z,19.40
2022-08-25T13:17:05.779Z,20.03
2022-08-25T13:19:35.148Z,19.15
2022-08-25T13:22:15.426Z,19.11
2022-08-25T13:24:44.200Z,19.74
2022-08-25T13:27:22.679Z,19.78
2022-08-25T13:29:52.774Z,19.56
2022-08-25T13:32:32.168Z,20.21
2022-08-25T13:35:17.583Z,20.66
2022-08-25T13:37:47.018Z,19.93
2022-08-25T13:40:19.866Z,20.72
2022-08-25T13:43:14.106Z,19.98
2022-08-25T13:45:46.958Z,19.84
2022-08-25T13:48:20.881Z,20.46
2022-08-25T13:50:52.664Z,21.03
2022-08-25T13:53:25.490Z,21.21
2022-08-25T13:55:53.508Z,21.12
2022-08-25T13:58:45.094Z,19.84
2022-08-25T14:01:23.452Z,19.85
2022-08-25T14:04:50.718Z,19.64
2022-08-25T14:07:22.741Z,20.85
2022-08-25T14:09:57.522Z,20.23
2022-08-25T14:12:30.917Z,19.20
2022-08-25T14:14:59.871Z,18.85
2022-08-25T14:17:39.453Z,20.14
2022-08-25T14:20:22.080Z,20.34
2022-08-25T14:22:51.315Z,21.03
2022-08-25T14:25:18.474Z,20.21
2022-08-25T14:30:34.764Z,20.89
2022-08-25T14:33:02.863Z,21.15
2022-08-25T14:35:30.008Z,19.95
2022-08-25T14:37:58.835Z,19.93
2022-08-25T14:40:27.356Z,19.60
2022-08-25T14:42:56.887Z,19.79
2022-08-25T14:45:24.019Z,20.30
2022-08-25T14:47:51.185Z,19.73
2022-08-25T14:50:20.171Z,20.69
2022-08-25T14:52:51.774Z,20.55
2022-08-25T14:55:31.639Z,20.26
2022-08-25T14:57:59.651Z,20.84
2022-08-25T15:00:26.804Z,21.02
2022-08-25T15:02:55.105Z,21.37
2022-08-25T15:05:25.936Z,22.98
2022-08-25T15:08:12.454Z,22.09
2022-08-25T15:10:40.594Z,22.19
2022-08-25T15:13:07.767Z,22.77
2022-08-25T15:15:36.027Z,23.04
2022-08-25T15:18:03.409Z,23.41
2022-08-25T15:20:30.755Z,23.40
2022-08-25T15:22:57.882Z,24.06
2022-08-25T15:25:25.147Z,24.42
2022-08-25T15:27:52.177Z,24.41
2022-08-25T15:30:19.250Z,24.31
2022-08-25T15:32:48.597Z,24.57
2022-08-25T15:35:15.989Z,24.23
2022-08-25T15:37:43.144Z,25.84
2022-08-25T15:40:10.997Z,25.34
2022-08-25T15:42:42.719Z,26.07
2022-08-25T15:45:11.555Z,26.00
2022-08-25T15:47:38.698Z,25.25
2022-08-25T15:50:14.980Z,25.95
2022-08-25T15:52:47.419Z,26.83
2022-08-25T15:55:15.201Z,26.64
2022-08-25T15:57:42.690Z,25.90
2022-08-25T16:00:12.153Z,26.17
2022-08-25T16:02:40.956Z,26.44
2022-08-25T16:05:09.182Z,26.33
2022-08-25T16:07:36.509Z,27.03
2022-08-25T16:10:04.644Z,27.62
2022-08-25T16:12:32.029Z,27.64
2022-08-25T16:14:59.054Z,30.32
2022-08-25T16:17:26.921Z,34.15
2022-08-25T16:19:54.025Z,32.76
2022-08-25T16:22:21.224Z,32.80
2022-08-25T16:24:48.288Z,32.70
2022-08-25T16:27:15.425Z,31.94
2022-08-25T16:29:44.039Z,30.90
2022-08-25T16:32:13.424Z,30.78
2022-08-25T16:34:41.790Z,30.81
2022-08-25T16:37:09.147Z,31.92
2022-08-25T16:39:39.951Z,32.26
2022-08-25T16:42:08.204Z,33.19
2022-08-25T16:44:35.406Z,32.46
2022-08-25T16:47:02.915Z,34.20
2022-08-25T16:49:31.212Z,35.44
2022-08-25T16:51:58.288Z,34.81
2022-08-25T16:54:45.121Z,35.37
2022-08-25T16:57:12.686Z,37.00
2022-08-25T16:59:39.718Z,37.31
2022-08-25T17:02:06.902Z,38.40
2022-08-25T17:04:34.153Z,40.39
2022-08-25T17:07:01.875Z,42.71
2022-08-25T17:09:30.046Z,43.79
2022-08-25T17:11:57.503Z,43.34
2022-08-25T17:14:24.861Z,43.11
2022-08-25T17:16:54.900Z,43.93
2022-08-25T17:19:23.805Z,44.23
2022-08-25T17:21:51.039Z,42.98
2022-08-25T17:24:18.090Z,44.81
2022-08-25T17:26:46.590Z,45.57
2022-08-25T17:29:13.712Z,45.98
2022-08-25T17:31:41.017Z,46.83
2022-08-25T17:34:09.637Z,47.18
2022-08-25T17:36:37.503Z,46.20
2022-08-25T17:39:07.851Z,45.68
2022-08-25T17:41:37.733Z,45.17
2022-08-25T17:44:05.513Z,47.86
2022-08-25T17:46:33.254Z,48.56
2022-08-25T17:49:00.531Z,48.09
2022-08-25T17:51:29.735Z,47.43
2022-08-25T17:53:59.130Z,48.58
2022-08-25T17:56:27.431Z,46.83
2022-08-25T17:58:57.909Z,47.91
2022-08-25T18:01:27.194Z,47.59
2022-08-25T18:03:54.587Z,47.69
2022-08-25T18:06:23.292Z,47.41
2022-08-25T18:08:52.951Z,47.55
2022-08-25T18:11:24.762Z,47.58
2022-08-25T18:13:53.939Z,48.38
2022-08-25T18:16:21.625Z,49.04
2022-08-25T18:18:48.953Z,51.42
2022-08-25T18:21:16.930Z,50.54
2022-08-25T18:23:44.584Z,51.11
2022-08-25T18:26:13.181Z,51.47
2022-08-25T18:28:43.873Z,51.77
2022-08-25T18:31:13.235Z,52.17
2022-08-25T18:33:42.299Z,51.74
2022-08-25T18:36:10.062Z,51.12
2022-08-25T18:38:58.120Z,50.89
2022-08-25T18:41:27.944Z,51.25
2022-08-25T18:43:55.268Z,51.65
2022-08-25T18:46:22.955Z,51.49
2022-08-25T18:48:52.869Z,51.48
2022-08-25T18:51:23.257Z,51.28
2022-08-25T18:53:54.475Z,52.18
2022-08-25T18:56:26.721Z,52.26
2022-08-25T18:58:53.843Z,52.04
2022-08-25T19:01:21.434Z,51.59
2022-08-25T19:03:49.322Z,51.09
2022-08-25T19:06:17.257Z,51.50
2022-08-25T19:08:47.042Z,51.49
2022-08-25T19:11:14.604Z,51.79
2022-08-25T19:13:43.514Z,51.67
2022-08-25T19:16:20.588Z,52.27
2022-08-25T19:18:49.113Z,53.36
2022-08-25T19:21:22.581Z,53.69
2022-08-25T19:23:51.355Z,53.83
2022-08-25T19:26:19.525Z,53.75
2022-08-25T19:28:48.957Z,54.33
2022-08-25T19:31:18.519Z,54.97
2022-08-25T19:33:49.571Z,54.44
2022-08-25T19:36:17.075Z,54.22
2022-08-25T19:38:44.696Z,53.80
2022-08-25T19:41:14.520Z,53.96
2022-08-25T19:43:55.106Z,53.96
2022-08-25T19:46:32.212Z,54.26
2022-08-25T19:49:07.261Z,54.08
2022-08-25T19:51:39.352Z,53.95
2022-08-25T19:54:09.141Z,54.35
2022-08-25T19:56:43.894Z,54.51
2022-08-25T19:59:40.550Z,54.34
2022-08-25T20:02:15.149Z,54.63
2022-08-25T20:04:49.452Z,54.69
2022-08-25T20:07:23.575Z,54.86
2022-08-25T20:09:52.074Z,55.00
2022-08-25T20:12:20.374Z,54.98
2022-08-25T20:14:48.282Z,54.68
2022-08-25T20:17:24.893Z,55.31
2022-08-25T20:20:02.026Z,55.54
2022-08-25T20:22:32.933Z,55.58
2022-08-25T20:25:02.820Z,55.44
2022-08-25T20:27:37.138Z,55.51
2022-08-25T20:30:07.838Z,55.99
2022-08-25T20:32:36.055Z,56.53
2022-08-25T20:35:04.143Z,57.70
2022-08-25T20:37:31.300Z,58.61
2022-08-25T20:40:01.435Z,58.48
2022-08-25T20:42:29.689Z,60.87
2022-08-25T20:44:56.815Z,58.81
2022-08-25T20:47:24.933Z,59.79
2022-08-25T20:49:52.190Z,59.34
2022-08-25T20:52:19.602Z,60.06
2022-08-25T20:54:50.516Z,60.69
2022-08-25T20:57:25.754Z,61.72
2022-08-25T20:59:54.929Z,61.77
2022-08-25T21:02:23.253Z,61.78
2022-08-25T21:04:50.810Z,63.44
2022-08-25T21:07:18.877Z,62.57
2022-08-25T21:09:46.467Z,63.17
2022-08-25T21:12:13.494Z,64.38
2022-08-25T21:14:41.667Z,63.84
2022-08-25T21:17:12.053Z,61.32
2022-08-25T21:19:39.996Z,59.36
2022-08-25T21:22:09.690Z,60.72
2022-08-25T21:24:38.042Z,59.84
2022-08-25T21:27:05.127Z,61.72
2022-08-25T21:29:33.175Z,60.33
2022-08-25T21:32:00.336Z,61.84
2022-08-25T21:34:29.023Z,62.78
2022-08-25T21:36:58.335Z,62.54
2022-08-25T21:39:28.685Z,62.92
2022-08-25T21:41:56.741Z,64.36
2022-08-25T21:44:23.873Z,64.68
2022-08-25T21:46:54.626Z,64.32
2022-08-25T21:49:23.220Z,64.97
2022-08-25T21:51:59.830Z,64.80
2022-08-25T21:54:28.635Z,64.39
2022-08-25T21:57:03.962Z,65.12
2022-08-25T21:59:36.541Z,63.87
2022-08-25T22:02:06.099Z,61.63
2022-08-25T22:04:33.223Z,61.68
2022-08-25T22:07:00.548Z,61.54
2022-08-25T22:09:28.391Z,62.39
2022-08-25T22:11:55.839Z,62.65
2022-08-25T22:14:23.777Z,62.71
2022-08-25T22:16:52.175Z,63.40
2022-08-25T22:19:19.471Z,64.56
2022-08-25T22:21:46.526Z,66.05
2022-08-25T22:24:15.615Z,64.16
2022-08-25T22:26:43.282Z,63.40
2022-08-25T22:29:20.736Z,63.11
2022-08-25T22:32:00.699Z,63.45
2022-08-25T22:34:34.475Z,64.67
2022-08-25T22:37:03.527Z,62.85
2022-08-25T22:40:10.261Z,59.89
2022-08-25T22:42:37.444Z,60.24
2022-08-25T22:45:05.154Z,60.91
2022-08-25T22:47:32.185Z,61.96
2022-08-25T22:49:59.613Z,61.97
2022-08-25T22:52:33.222Z,62.29
2022-08-25T22:55:01.402Z,62.37
2022-08-25T22:57:28.675Z,62.63
2022-08-25T22:59:56.914Z,62.92
2022-08-25T23:02:23.861Z,63.45
2022-08-25T23:04:50.938Z,63.97
2022-08-25T23:07:24.112Z,64.52
2022-08-25T23:09:51.561Z,64.28
2022-08-25T23:12:18.633Z,64.57
2022-08-25T23:14:46.174Z,64.57
2022-08-25T23:17:13.836Z,64.74
2022-08-25T23:19:40.871Z,65.07
2022-08-25T23:22:11.039Z,61.83
2022-08-25T23:24:52.708Z,61.92
2022-08-25T23:27:20.984Z,63.23
2022-08-25T23:29:49.138Z,63.44
2022-08-25T23:32:17.252Z,63.93
2022-08-25T23:34:46.742Z,63.86
2022-08-25T23:37:14.349Z,64.14
2022-08-25T23:39:45.668Z,65.63
2022-08-25T23:42:12.870Z,66.26
2022-08-25T23:44:40.022Z,67.32
2022-08-25T23:47:07.294Z,67.96
2022-08-25T23:49:39.465Z,66.90
2022-08-25T23:52:06.795Z,64.23
2022-08-25T23:54:33.845Z,63.92
2022-08-25T23:57:00.824Z,64.08
2022-08-25T23:59:29.211Z,64.79
